createdAt,value
2023-01-23T00:01:16.254Z,1.90
2023-01-23T00:03:43.262Z,1.80
2023-01-23T00:06:14.793Z,1.80
2023-01-23T00:08:42.880Z,1.80
2023-01-23T00:11:12.854Z,1.80
2023-01-23T00:13:40.054Z,1.80
2023-01-23T00:16:09.103Z,1.80
2023-01-23T00:18:37.170Z,1.80
2023-01-23T00:21:15.228Z,1.80
2023-01-23T00:23:47.455Z,1.80
2023-01-23T00:26:19.503Z,1.80
2023-01-23T00:28:47.302Z,1.80
2023-01-23T00:31:18.848Z,1.80
2023-01-23T00:33:46.664Z,1.80
2023-01-23T00:36:15.741Z,1.80
2023-01-23T00:38:43.131Z,1.80
2023-01-23T00:41:10.050Z,1.80
2023-01-23T00:43:37.100Z,1.80
2023-01-23T00:46:04.115Z,1.80
2023-01-23T00:48:35.639Z,1.80
2023-01-23T00:51:02.628Z,1.80
2023-01-23T00:53:29.602Z,1.80
2023-01-23T00:55:56.543Z,1.80
2023-01-23T00:58:23.538Z,1.80
2023-01-23T01:00:50.573Z,1.80
2023-01-23T01:03:17.531Z,1.80
2023-01-23T01:05:44.427Z,1.80
2023-01-23T01:08:11.698Z,1.80
2023-01-23T01:10:41.191Z,1.80
2023-01-23T01:13:08.385Z,1.70
2023-01-23T01:15:35.944Z,1.80
2023-01-23T01:18:02.983Z,1.70
2023-01-23T01:20:30.478Z,1.70
2023-01-23T01:22:59.010Z,1.70
2023-01-23T01:25:26.403Z,1.80
2023-01-23T01:27:53.369Z,1.80
2023-01-23T01:30:20.735Z,1.80
2023-01-23T01:32:48.026Z,1.70
2023-01-23T01:35:15.990Z,1.70
2023-01-23T01:37:42.994Z,1.80
2023-01-23T01:40:15.262Z,1.80
2023-01-23T01:42:59.440Z,1.80
2023-01-23T01:46:03.305Z,1.80
2023-01-23T01:48:37.149Z,1.80
2023-01-23T01:51:09.658Z,1.80
2023-01-23T01:53:37.944Z,1.80
2023-01-23T01:56:06.329Z,1.80
2023-01-23T01:58:33.866Z,1.80
2023-01-23T02:01:01.014Z,1.80
2023-01-23T02:03:28.178Z,1.80
2023-01-23T02:05:55.054Z,1.70
2023-01-23T02:08:39.106Z,1.70
2023-01-23T02:11:06.985Z,1.70
2023-01-23T02:13:39.917Z,1.70
2023-01-23T02:16:18.840Z,1.70
2023-01-23T02:18:49.895Z,1.70
2023-01-23T02:21:23.685Z,1.70
2023-01-23T02:24:17.156Z,1.70
2023-01-23T02:26:46.783Z,1.70
2023-01-23T02:29:15.665Z,1.70
2023-01-23T02:31:44.398Z,1.70
2023-01-23T02:34:13.316Z,1.70
2023-01-23T02:36:42.825Z,1.70
2023-01-23T02:39:13.481Z,1.70
2023-01-23T02:41:49.306Z,1.80
2023-01-23T02:44:28.579Z,1.80
2023-01-23T02:46:59.319Z,1.80
2023-01-23T02:49:26.321Z,1.80
2023-01-23T02:51:55.530Z,1.80
2023-01-23T02:54:23.845Z,1.80
2023-01-23T02:56:50.851Z,1.80
2023-01-23T02:59:36.700Z,1.80
2023-01-23T03:02:04.591Z,1.80
2023-01-23T03:04:31.578Z,1.80
2023-01-23T03:06:59.426Z,1.80
2023-01-23T03:09:26.815Z,1.80
2023-01-23T03:11:54.031Z,1.80
2023-01-23T03:14:22.935Z,1.80
2023-01-23T03:16:54.043Z,1.90
2023-01-23T03:19:24.441Z,1.90
2023-01-23T03:21:51.879Z,1.90
2023-01-23T03:24:31.277Z,1.90
2023-01-23T03:26:58.257Z,1.90
2023-01-23T03:29:48.904Z,1.90
2023-01-23T03:32:21.642Z,1.90
2023-01-23T03:34:49.684Z,1.90
2023-01-23T03:37:21.003Z,1.90
2023-01-23T03:40:09.708Z,1.90
2023-01-23T03:42:37.186Z,1.90
2023-01-23T03:45:05.392Z,1.90
2023-01-23T03:47:32.741Z,1.90
2023-01-23T03:50:00.210Z,1.90
2023-01-23T03:52:29.142Z,1.90
2023-01-23T03:55:15.825Z,2.00
2023-01-23T03:57:45.675Z,2.00
2023-01-23T04:00:15.648Z,2.00
2023-01-23T04:02:43.146Z,2.00
2023-01-23T04:05:12.855Z,2.00
2023-01-23T04:07:53.836Z,2.00
2023-01-23T04:10:21.839Z,2.00
2023-01-23T04:12:48.847Z,2.00
2023-01-23T04:15:18.246Z,2.00
2023-01-23T04:17:48.964Z,2.00
2023-01-23T04:20:18.432Z,2.00
2023-01-23T04:22:47.751Z,2.00
2023-01-23T04:25:16.541Z,2.00
2023-01-23T04:27:43.405Z,2.00
2023-01-23T04:30:24.813Z,2.00
2023-01-23T04:32:52.100Z,2.00
2023-01-23T04:35:20.002Z,2.00
2023-01-23T04:37:49.223Z,2.10
2023-01-23T04:40:21.442Z,2.00
2023-01-23T04:42:52.233Z,2.00
2023-01-23T04:45:23.654Z,2.00
2023-01-23T04:47:56.168Z,2.00
2023-01-23T04:50:24.897Z,2.00
2023-01-23T04:52:57.792Z,2.00
2023-01-23T04:55:30.570Z,2.00
2023-01-23T04:58:05.188Z,2.00
2023-01-23T05:00:45.072Z,2.00
2023-01-23T05:03:20.558Z,2.00
2023-01-23T05:05:49.292Z,2.00
2023-01-23T05:08:21.048Z,2.00
2023-01-23T05:10:49.505Z,2.00
2023-01-23T05:13:21.007Z,2.00
2023-01-23T05:15:49.506Z,2.00
2023-01-23T05:18:17.640Z,2.00
2023-01-23T05:20:46.516Z,2.00
2023-01-23T05:23:13.489Z,2.00
2023-01-23T05:25:43.570Z,2.00
2023-01-23T05:28:13.536Z,2.00
2023-01-23T05:30:41.080Z,2.00
2023-01-23T05:33:08.285Z,2.00
2023-01-23T05:35:35.205Z,2.00
2023-01-23T05:38:02.035Z,2.00
2023-01-23T05:40:30.269Z,2.00
2023-01-23T05:42:59.525Z,2.00
2023-01-23T05:45:26.381Z,2.00
2023-01-23T05:47:53.354Z,2.00
2023-01-23T05:50:24.473Z,2.00
2023-01-23T05:52:51.376Z,2.00
2023-01-23T05:55:18.437Z,2.00
2023-01-23T05:57:48.359Z,2.00
2023-01-23T06:00:16.169Z,2.00
2023-01-23T06:02:43.939Z,2.00
2023-01-23T06:05:10.819Z,2.00
2023-01-23T06:07:37.760Z,2.00
2023-01-23T06:10:08.358Z,2.00
2023-01-23T06:12:36.473Z,2.00
2023-01-23T06:15:03.668Z,2.00
2023-01-23T06:17:30.728Z,2.00
2023-01-23T06:19:58.998Z,2.00
2023-01-23T06:22:26.115Z,2.00
2023-01-23T06:24:53.000Z,2.00
2023-01-23T06:27:19.960Z,2.00
2023-01-23T06:29:46.964Z,2.00
2023-01-23T06:32:13.941Z,2.00
2023-01-23T06:34:40.860Z,2.00
2023-01-23T06:37:08.045Z,2.00
2023-01-23T06:39:35.010Z,2.00
2023-01-23T06:42:01.947Z,2.00
2023-01-23T06:44:29.006Z,2.00
2023-01-23T06:46:56.065Z,2.00
2023-01-23T06:49:22.981Z,2.00
2023-01-23T06:51:49.882Z,2.00
2023-01-23T06:54:18.392Z,2.10
2023-01-23T06:56:45.396Z,2.10
2023-01-23T06:59:12.364Z,2.10
2023-01-23T07:01:40.338Z,2.10
2023-01-23T07:04:09.018Z,2.10
2023-01-23T07:06:36.046Z,2.10
2023-01-23T07:09:03.043Z,2.10
2023-01-23T07:11:29.988Z,2.10
2023-01-23T07:13:56.928Z,2.10
2023-01-23T07:16:25.141Z,2.10
2023-01-23T07:18:52.139Z,2.10
2023-01-23T07:21:19.058Z,2.10
2023-01-23T07:23:47.186Z,2.10
2023-01-23T07:26:14.044Z,2.10
2023-01-23T07:28:40.902Z,2.20
2023-01-23T07:31:08.036Z,2.20
2023-01-23T07:33:35.031Z,2.20
2023-01-23T07:36:05.989Z,2.20
2023-01-23T07:38:32.947Z,2.20
2023-01-23T07:41:00.202Z,2.20
2023-01-23T07:43:27.668Z,2.20
2023-01-23T07:45:54.741Z,2.20
2023-01-23T07:48:21.631Z,2.20
2023-01-23T07:50:48.585Z,2.20
2023-01-23T07:53:15.463Z,2.20
2023-01-23T07:55:42.347Z,2.20
2023-01-23T07:58:11.560Z,2.20
2023-01-23T08:00:39.178Z,2.30
2023-01-23T08:03:06.116Z,2.30
2023-01-23T08:05:33.016Z,2.30
2023-01-23T08:08:12.610Z,2.30
2023-01-23T08:10:41.913Z,2.30
2023-01-23T08:13:08.843Z,2.30
2023-01-23T08:15:38.821Z,2.30
2023-01-23T08:18:05.992Z,2.30
2023-01-23T08:20:32.884Z,2.30
2023-01-23T08:23:02.247Z,2.30
2023-01-23T08:25:29.497Z,2.30
2023-01-23T08:27:56.603Z,2.30
2023-01-23T08:30:23.747Z,2.40
2023-01-23T08:32:50.613Z,2.40
2023-01-23T08:35:18.304Z,2.40
2023-01-23T08:37:45.199Z,2.40
2023-01-23T08:40:12.634Z,2.40
2023-01-23T08:42:39.561Z,2.40
2023-01-23T08:45:07.667Z,2.40
2023-01-23T08:47:37.190Z,2.40
2023-01-23T08:50:05.282Z,2.50
2023-01-23T08:52:33.908Z,2.50
2023-01-23T08:55:00.818Z,2.50
2023-01-23T08:57:27.714Z,2.50
2023-01-23T08:59:54.620Z,2.50
2023-01-23T09:02:22.200Z,2.50
2023-01-23T09:04:50.483Z,2.60
2023-01-23T09:07:17.337Z,2.60
2023-01-23T09:09:44.293Z,2.60
2023-01-23T09:12:12.237Z,2.60
2023-01-23T09:14:41.340Z,2.60
2023-01-23T09:17:08.234Z,2.60
2023-01-23T09:19:35.284Z,2.70
2023-01-23T09:22:02.180Z,2.70
2023-01-23T09:24:29.067Z,2.70
2023-01-23T09:26:56.080Z,2.70
2023-01-23T09:29:22.990Z,2.80
2023-01-23T09:31:49.929Z,2.80
2023-01-23T09:34:17.375Z,2.80
2023-01-23T09:36:44.494Z,2.70
2023-01-23T09:39:11.989Z,2.70
2023-01-23T09:41:40.773Z,2.80
2023-01-23T09:44:34.197Z,2.80
2023-01-23T09:47:28.067Z,2.80
2023-01-23T09:50:02.380Z,2.80
2023-01-23T09:52:44.802Z,2.80
2023-01-23T09:55:35.892Z,2.90
2023-01-23T09:58:04.391Z,2.90
2023-01-23T10:00:33.814Z,2.90
2023-01-23T10:03:03.484Z,2.90
2023-01-23T10:06:26.167Z,3.00
2023-01-23T10:09:32.016Z,3.00
2023-01-23T10:12:28.076Z,3.00
2023-01-23T10:15:31.234Z,3.10
2023-01-23T10:18:23.739Z,3.20
2023-01-23T10:21:11.885Z,3.10
2023-01-23T10:24:01.818Z,3.10
2023-01-23T10:26:36.707Z,3.10
2023-01-23T10:29:15.226Z,3.10
2023-01-23T10:31:51.903Z,3.10
2023-01-23T10:34:28.286Z,3.10
2023-01-23T10:37:07.338Z,3.10
2023-01-23T10:40:02.673Z,3.20
2023-01-23T10:42:30.283Z,3.20
2023-01-23T10:44:57.199Z,3.10
2023-01-23T10:47:42.889Z,3.10
2023-01-23T10:50:11.565Z,3.00
2023-01-23T10:52:46.759Z,3.00
2023-01-23T10:55:45.417Z,3.00
2023-01-23T10:58:34.053Z,3.00
2023-01-23T11:01:01.605Z,3.00
2023-01-23T11:03:32.727Z,3.10
2023-01-23T11:06:08.938Z,3.10
2023-01-23T11:08:37.294Z,3.00
2023-01-23T11:11:22.697Z,3.00
2023-01-23T11:14:05.101Z,3.00
2023-01-23T11:16:32.238Z,3.00
2023-01-23T11:19:15.767Z,3.00
2023-01-23T11:22:38.285Z,3.00
2023-01-23T11:25:38.718Z,3.00
2023-01-23T11:28:30.862Z,3.10
2023-01-23T11:31:19.770Z,3.00
2023-01-23T11:34:12.286Z,3.10
2023-01-23T11:37:07.829Z,3.10
2023-01-23T11:40:22.235Z,3.20
2023-01-23T11:42:49.268Z,3.20
2023-01-23T11:45:46.645Z,3.30
2023-01-23T11:48:36.374Z,3.30
2023-01-23T11:51:23.419Z,3.20
2023-01-23T11:54:29.075Z,3.30
2023-01-23T11:57:19.428Z,3.30
2023-01-23T11:59:56.085Z,3.30
2023-01-23T12:03:10.347Z,3.30
2023-01-23T12:06:20.761Z,3.20
2023-01-23T12:09:16.819Z,3.30
2023-01-23T12:12:25.452Z,3.40
2023-01-23T12:15:29.379Z,3.40
2023-01-23T12:51:23.393Z,3.30
2023-01-23T12:53:57.532Z,3.30
2023-01-23T12:56:31.098Z,3.30
2023-01-23T12:59:20.303Z,3.30
2023-01-23T13:02:21.763Z,3.40
2023-01-23T13:05:19.896Z,3.30
2023-01-23T13:08:25.298Z,3.30
2023-01-23T13:11:43.584Z,3.30
2023-01-23T13:18:00.370Z,3.40
2023-01-23T13:21:11.813Z,3.40
2023-01-23T13:23:40.568Z,3.40
2023-01-23T13:26:39.743Z,3.40
2023-01-23T13:29:50.738Z,3.40
2023-01-23T13:32:28.282Z,3.30
2023-01-23T13:34:57.736Z,3.40
2023-01-23T13:37:52.382Z,3.40
2023-01-23T13:40:25.020Z,3.40
2023-01-23T13:42:52.438Z,3.40
2023-01-23T13:45:27.767Z,3.40
2023-01-23T14:22:44.557Z,3.50
2023-01-23T14:25:18.804Z,3.50
2023-01-23T14:27:54.330Z,3.50
2023-01-23T14:30:28.341Z,3.40
2023-01-23T14:32:55.868Z,3.50
2023-01-23T14:35:31.404Z,3.50
2023-01-23T14:38:05.447Z,3.50
2023-01-23T14:40:48.938Z,3.50
2023-01-23T14:43:26.940Z,3.50
2023-01-23T14:46:03.302Z,3.50
2023-01-23T14:48:35.266Z,3.50
2023-01-23T14:51:26.913Z,3.50
2023-01-23T14:54:02.129Z,3.50
2023-01-23T14:56:35.611Z,3.50
2023-01-23T14:59:06.766Z,3.50
2023-01-23T15:01:35.867Z,3.40
2023-01-23T15:04:24.299Z,3.40
2023-01-23T15:06:57.037Z,3.40
2023-01-23T15:09:42.038Z,3.40
2023-01-23T15:12:19.090Z,3.40
2023-01-23T15:14:46.128Z,3.40
2023-01-23T15:17:18.413Z,3.40
2023-01-23T15:19:51.130Z,3.40
2023-01-23T15:22:29.112Z,3.40
2023-01-23T15:24:56.813Z,3.40
2023-01-23T15:27:31.162Z,3.40
2023-01-23T15:30:39.273Z,3.40
2023-01-23T15:33:27.173Z,3.40
2023-01-23T15:36:03.266Z,3.40
2023-01-23T15:38:30.623Z,3.40
2023-01-23T15:40:58.485Z,3.40
2023-01-23T15:43:25.732Z,3.40
2023-01-23T15:45:53.741Z,3.30
2023-01-23T15:53:03.873Z,3.30
2023-01-23T15:55:30.825Z,3.30
2023-01-23T15:57:57.750Z,3.30
2023-01-23T16:00:30.549Z,3.40
2023-01-23T16:02:59.093Z,3.40
2023-01-23T16:05:28.869Z,3.30
2023-01-23T16:07:57.298Z,3.30
2023-01-23T16:10:29.361Z,3.30
2023-01-23T16:12:58.414Z,3.30
2023-01-23T16:15:28.911Z,3.20
2023-01-23T16:17:56.853Z,3.20
2023-01-23T16:20:28.181Z,3.30
2023-01-23T16:23:01.914Z,3.20
2023-01-23T16:25:44.089Z,3.20
2023-01-23T16:28:16.939Z,3.20
2023-01-23T16:30:44.842Z,3.20
2023-01-23T16:33:12.326Z,3.20
2023-01-23T16:35:43.456Z,3.20
2023-01-23T16:38:30.495Z,3.20
2023-01-23T16:41:00.076Z,3.20
2023-01-23T16:43:27.617Z,3.20
2023-01-23T16:45:56.619Z,3.20
2023-01-23T16:48:27.604Z,3.20
2023-01-23T16:51:19.702Z,3.20
2023-01-23T16:53:55.297Z,3.20
2023-01-23T16:56:35.178Z,3.20
2023-01-23T16:59:05.960Z,3.20
2023-01-23T17:01:39.935Z,3.20
2023-01-23T17:04:07.164Z,3.20
2023-01-23T17:06:34.192Z,3.20
2023-01-23T17:09:01.079Z,3.20
2023-01-23T17:11:35.531Z,3.20
2023-01-23T17:14:08.254Z,3.20
2023-01-23T17:16:36.579Z,3.20
2023-01-23T17:19:11.218Z,3.20
2023-01-23T17:21:38.519Z,3.20
2023-01-23T17:24:10.481Z,3.20
2023-01-23T17:26:37.540Z,3.20
2023-01-23T17:29:04.909Z,3.10
2023-01-23T17:31:33.256Z,3.10
2023-01-23T17:34:03.135Z,3.10
2023-01-23T17:36:30.864Z,3.10
2023-01-23T17:38:59.118Z,3.10
2023-01-23T17:41:26.278Z,3.10
2023-01-23T17:43:53.232Z,3.10
2023-01-23T17:46:26.959Z,3.10
2023-01-23T17:48:55.755Z,3.10
2023-01-23T17:51:24.677Z,3.10
2023-01-23T17:53:52.001Z,3.10
2023-01-23T17:56:19.268Z,3.10
2023-01-23T17:58:46.371Z,3.10
2023-01-23T18:01:25.745Z,3.10
2023-01-23T18:03:53.406Z,3.10
2023-01-23T18:06:20.655Z,3.10
2023-01-23T18:08:47.650Z,3.10
2023-01-23T18:11:18.109Z,3.10
2023-01-23T18:14:16.042Z,3.10
2023-01-23T18:16:45.586Z,3.10
2023-01-23T18:19:24.585Z,3.10
2023-01-23T18:21:57.041Z,3.20
2023-01-23T18:24:32.726Z,3.20
2023-01-23T18:27:24.086Z,3.20
2023-01-23T18:30:33.741Z,3.20
2023-01-23T18:33:34.201Z,3.20
2023-01-23T18:36:18.864Z,3.10
2023-01-23T18:39:21.637Z,3.10
2023-01-23T18:42:23.246Z,3.10
2023-01-23T18:44:58.826Z,3.10
2023-01-23T18:47:26.152Z,3.10
2023-01-23T18:49:53.462Z,3.10
2023-01-23T18:52:30.441Z,3.10
2023-01-23T18:55:11.381Z,3.10
2023-01-23T18:58:29.886Z,3.10
2023-01-23T19:01:25.361Z,3.10
2023-01-23T19:03:55.175Z,3.10
2023-01-23T19:06:24.653Z,3.10
2023-01-23T19:08:54.199Z,3.10
2023-01-23T19:11:42.966Z,3.00
2023-01-23T19:15:02.818Z,3.00
2023-01-23T19:17:42.476Z,3.10
2023-01-23T19:20:37.869Z,3.00
2023-01-23T19:23:32.806Z,3.00
2023-01-23T19:26:00.223Z,3.00
2023-01-23T19:28:27.712Z,2.90
2023-01-23T19:30:58.341Z,2.90
2023-01-23T19:33:27.117Z,2.90
2023-01-23T19:35:56.716Z,2.90
2023-01-23T19:38:23.747Z,2.90
2023-01-23T19:40:51.156Z,2.90
2023-01-23T19:43:18.944Z,2.90
2023-01-23T19:45:46.712Z,2.90
2023-01-23T19:48:14.769Z,2.90
2023-01-23T19:50:41.809Z,2.90
2023-01-23T19:53:12.894Z,2.80
2023-01-23T19:55:40.581Z,2.80
2023-01-23T19:58:08.396Z,2.80
2023-01-23T20:00:38.839Z,2.80
2023-01-23T20:03:05.836Z,2.80
2023-01-23T20:05:33.281Z,2.80
2023-01-23T20:08:01.297Z,2.70
2023-01-23T20:10:28.493Z,2.80
2023-01-23T20:12:59.262Z,2.80
2023-01-23T20:15:27.846Z,2.80
2023-01-23T20:17:55.200Z,2.80
2023-01-23T20:20:22.897Z,2.80
2023-01-23T20:22:50.448Z,2.80
2023-01-23T20:25:18.139Z,2.80
2023-01-23T20:27:45.822Z,2.80
2023-01-23T20:30:20.317Z,2.80
2023-01-23T20:32:48.646Z,2.70
2023-01-23T20:35:18.252Z,2.70
2023-01-23T20:37:45.378Z,2.70
2023-01-23T20:40:13.322Z,2.70
2023-01-23T20:42:40.751Z,2.70
2023-01-23T20:45:08.665Z,2.70
2023-01-23T20:47:36.708Z,2.70
2023-01-23T20:50:04.432Z,2.70
2023-01-23T20:52:50.804Z,2.70
2023-01-23T20:55:18.352Z,2.70
2023-01-23T20:58:04.155Z,2.70
2023-01-23T21:00:31.647Z,2.70
2023-01-23T21:02:59.092Z,2.70
2023-01-23T21:05:26.406Z,2.60
2023-01-23T21:07:53.456Z,2.70
2023-01-23T21:10:20.549Z,2.70
2023-01-23T21:12:47.487Z,2.70
2023-01-23T21:15:14.603Z,2.70
2023-01-23T21:17:41.605Z,2.70
2023-01-23T21:20:09.898Z,2.70
2023-01-23T21:22:38.707Z,2.70
2023-01-23T21:25:06.637Z,2.70
2023-01-23T21:27:33.704Z,2.70
2023-01-23T21:30:00.694Z,2.70
2023-01-23T21:32:28.098Z,2.70
2023-01-23T21:34:55.044Z,2.70
2023-01-23T21:37:22.159Z,2.70
2023-01-23T21:39:49.211Z,2.70
2023-01-23T21:42:16.609Z,2.70
2023-01-23T21:44:43.528Z,2.80
2023-01-23T21:47:10.489Z,2.80
2023-01-23T21:49:37.425Z,2.70
2023-01-23T21:52:04.581Z,2.70
2023-01-23T21:54:31.528Z,2.80
2023-01-23T21:56:58.438Z,2.80
2023-01-23T21:59:25.515Z,2.80
2023-01-23T22:01:52.955Z,2.80
2023-01-23T22:04:24.198Z,2.80
2023-01-23T22:06:55.106Z,2.80
2023-01-23T22:09:27.291Z,2.90
2023-01-23T22:11:55.725Z,2.90
2023-01-23T22:14:24.124Z,2.90
2023-01-23T22:16:51.713Z,2.90
2023-01-23T22:19:24.908Z,2.90
2023-01-23T22:21:55.178Z,2.90
2023-01-23T22:24:22.580Z,2.90
2023-01-23T22:26:49.532Z,2.90
2023-01-23T22:29:16.797Z,2.80
2023-01-23T22:31:44.511Z,2.80
2023-01-23T22:34:11.612Z,2.80
2023-01-23T22:36:38.584Z,2.80
2023-01-23T22:39:05.563Z,2.80
2023-01-23T22:41:32.541Z,2.80
2023-01-23T22:43:59.551Z,2.80
2023-01-23T22:46:27.276Z,2.80
2023-01-23T22:48:54.300Z,2.80
2023-01-23T22:51:24.727Z,2.80
2023-01-23T22:53:53.089Z,2.80
2023-01-23T22:56:20.356Z,2.80
2023-01-23T22:58:48.955Z,2.80
2023-01-23T23:01:16.540Z,2.80
2023-01-23T23:03:44.627Z,2.80
2023-01-23T23:06:14.251Z,2.80
2023-01-23T23:08:41.433Z,2.80
2023-01-23T23:11:20.230Z,2.80
2023-01-23T23:13:47.692Z,2.80
2023-01-23T23:16:17.973Z,2.80
2023-01-23T23:18:46.979Z,2.80
2023-01-23T23:21:16.207Z,2.80
2023-01-23T23:23:43.246Z,2.80
2023-01-23T23:26:10.963Z,2.80
2023-01-23T23:28:39.235Z,2.80
2023-01-23T23:31:08.750Z,2.80
2023-01-23T23:33:36.325Z,2.80
2023-01-23T23:36:03.488Z,2.70
2023-01-23T23:38:30.399Z,2.70
2023-01-23T23:40:59.230Z,2.70
2023-01-23T23:43:27.200Z,2.70
2023-01-23T23:46:06.173Z,2.70
2023-01-23T23:48:34.807Z,2.70
2023-01-23T23:51:14.024Z,2.70
2023-01-23T23:53:43.090Z,2.70
2023-01-23T23:56:13.842Z,2.70
2023-01-23T23:58:41.267Z,2.70
